Time;durP1;ratioP1;P1;durP2;ratioP2;P2;SDS_P1;SDS_P2;PMS_P1;PMS_P2;Temp;Humidity;BMP_temperature;BMP_pressure;BME280_temperature;BME280_humidity;BME280_pressure;Samples;Min_cycle;Max_cycle;Signal;HPM_P1;HPM_P2
2022/07/08 00:01:58;;;;;;;8.80;1.35;;;17.50;92.80;;;;;;5111370;28;20028;-69
2022/07/08 00:04:25;;;;;;;9.80;1.35;;;17.50;92.90;;;;;;5111209;28;20035;-68
2022/07/08 00:06:51;;;;;;;8.75;1.98;;;17.40;93.00;;;;;;5111391;28;20020;-69
2022/07/08 00:09:17;;;;;;;12.32;1.90;;;17.40;93.10;;;;;;5110983;28;20103;-69
2022/07/08 00:11:44;;;;;;;9.70;1.70;;;17.40;93.20;;;;;;5111099;28;20030;-68
2022/07/08 00:14:10;;;;;;;10.00;1.88;;;17.40;93.10;;;;;;5092809;28;20301;-68
2022/07/08 00:16:40;;;;;;;10.13;1.80;;;17.40;93.10;;;;;;5110905;28;20084;-68
2022/07/08 00:19:14;;;;;;;8.70;1.60;;;17.40;93.10;;;;;;5110909;28;20077;-69
2022/07/08 00:21:44;;;;;;;6.63;1.33;;;17.40;93.20;;;;;;5113239;28;20384;-68
2022/07/08 00:24:14;;;;;;;6.25;1.40;;;17.40;93.30;;;;;;5115424;28;20028;-68
2022/07/08 00:26:41;;;;;;;6.60;1.40;;;17.40;93.40;;;;;;5115421;28;20031;-68
2022/07/08 00:29:07;;;;;;;8.80;2.25;;;17.30;93.50;;;;;;5115443;28;20035;-69
2022/07/08 00:31:33;;;;;;;6.40;1.60;;;17.30;93.50;;;;;;5116523;28;20031;-69
2022/07/08 00:33:59;;;;;;;6.68;1.70;;;17.40;93.60;;;;;;5116396;28;20032;-69
2022/07/08 00:36:26;;;;;;;4.18;1.30;;;17.40;93.70;;;;;;5116075;28;20488;-68
2022/07/08 00:38:53;;;;;;;10.80;1.58;;;17.40;93.70;;;;;;5114828;28;20488;-69
2022/07/08 00:41:20;;;;;;;10.27;1.80;;;17.40;93.70;;;;;;5114813;28;20038;-69
2022/07/08 00:43:47;;;;;;;11.07;1.90;;;17.40;93.80;;;;;;5114741;28;20491;-69
2022/07/08 00:46:15;;;;;;;6.38;1.50;;;17.40;93.90;;;;;;5114620;28;20034;-69
2022/07/08 00:48:42;;;;;;;6.35;1.55;;;17.40;93.90;;;;;;5114506;28;20032;-69
2022/07/08 00:51:11;;;;;;;7.00;1.58;;;17.30;94.00;;;;;;5114684;28;20032;-68
2022/07/08 00:53:39;;;;;;;9.35;1.80;;;17.40;94.00;;;;;;5114952;28;20050;-69
2022/07/08 00:56:07;;;;;;;9.73;1.58;;;17.30;94.00;;;;;;5114552;28;20027;-69
2022/07/08 00:58:34;;;;;;;10.98;2.30;;;17.40;94.10;;;;;;5114135;28;20050;-69
2022/07/08 01:01:00;;;;;;;8.77;1.70;;;17.30;93.90;;;;;;5114273;28;20035;-69
2022/07/08 01:03:27;;;;;;;10.82;2.22;;;17.40;93.90;;;;;;5079394;28;20133;-69
2022/07/08 01:05:53;;;;;;;12.52;2.58;;;17.40;93.90;;;;;;5114298;28;20483;-69
2022/07/08 01:08:19;;;;;;;9.98;1.83;;;17.40;93.90;;;;;;5114276;28;20106;-69
2022/07/08 01:10:45;;;;;;;8.70;1.73;;;17.30;93.90;;;;;;5114132;28;20467;-69
2022/07/08 01:13:11;;;;;;;7.63;1.70;;;17.30;94.00;;;;;;5114050;28;20031;-69
2022/07/08 01:15:37;;;;;;;9.95;2.10;;;17.30;93.90;;;;;;5114182;28;20019;-68
2022/07/08 01:18:03;;;;;;;8.82;2.00;;;17.30;94.00;;;;;;5114157;28;20123;-69
2022/07/08 01:20:33;;;;;;;7.60;1.52;;;17.30;94.10;;;;;;5113849;28;20058;-69
2022/07/08 01:23:00;;;;;;;8.45;2.03;;;17.30;94.20;;;;;;5095973;28;20047;-68
2022/07/08 01:25:27;;;;;;;6.90;1.60;;;17.30;94.20;;;;;;5113988;28;20038;-69
2022/07/08 01:27:54;;;;;;;10.38;2.13;;;17.30;94.20;;;;;;5113561;28;20416;-69
2022/07/08 01:30:19;;;;;;;7.38;1.73;;;17.30;94.10;;;;;;5113791;28;20039;-69
2022/07/08 01:32:45;;;;;;;6.28;1.70;;;17.20;94.10;;;;;;5112791;28;20027;-68
2022/07/08 01:35:11;;;;;;;6.97;2.00;;;17.20;94.20;;;;;;5113709;28;20027;-69
2022/07/08 01:37:37;;;;;;;6.43;1.92;;;17.30;93.70;;;;;;5113656;28;20028;-69
2022/07/08 01:40:04;;;;;;;6.07;1.25;;;17.30;93.50;;;;;;5113473;28;20027;-69
2022/07/08 01:42:30;;;;;;;8.85;1.70;;;17.30;93.00;;;;;;5113775;28;20061;-69
2022/07/08 01:44:56;;;;;;;7.10;1.40;;;17.20;92.70;;;;;;5095416;28;20031;-70
2022/07/08 01:47:22;;;;;;;11.65;1.63;;;17.20;92.70;;;;;;5113660;28;20459;-70
2022/07/08 01:49:48;;;;;;;11.13;1.63;;;17.20;92.50;;;;;;5113295;28;20070;-70
2022/07/08 01:52:14;;;;;;;7.60;1.52;;;17.20;92.40;;;;;;5113362;28;20059;-70
2022/07/08 01:54:40;;;;;;;7.85;1.33;;;17.20;92.30;;;;;;5113345;28;20047;-70
2022/07/08 01:57:15;;;;;;;12.07;1.30;;;17.20;92.50;;;;;;5113288;28;20027;-70
2022/07/08 01:59:42;;;;;;;11.98;2.00;;;17.20;92.60;;;;;;5113056;28;20110;-70
2022/07/08 02:02:09;;;;;;;9.85;1.40;;;17.20;92.70;;;;;;5113256;28;20031;-70
2022/07/08 02:04:35;;;;;;;8.10;1.60;;;17.20;92.80;;;;;;5113693;28;20278;-70
2022/07/08 02:07:02;;;;;;;6.82;1.83;;;17.10;92.90;;;;;;5113176;28;20425;-70
2022/07/08 02:09:28;;;;;;;9.30;1.67;;;17.10;93.00;;;;;;5112714;28;20024;-70
2022/07/08 02:14:38;;;;;;;6.43;1.70;;;17.10;93.50;;;;;;5113297;28;20085;-70
2022/07/08 02:17:05;;;;;;;6.50;1.50;;;17.10;93.80;;;;;;5112891;28;20035;-70
2022/07/08 02:19:31;;;;;;;8.07;1.17;;;17.20;94.00;;;;;;5113003;28;20081;-70
2022/07/08 02:21:57;;;;;;;13.40;1.80;;;17.20;94.30;;;;;;5112830;28;20074;-70
2022/07/08 02:24:23;;;;;;;7.47;1.65;;;17.20;94.50;;;;;;5112954;28;20480;-70
2022/07/08 02:26:49;;;;;;;9.70;1.60;;;17.20;94.60;;;;;;5112652;28;20023;-70
2022/07/08 02:29:15;;;;;;;7.90;1.40;;;17.20;94.60;;;;;;5112649;28;20484;-69
2022/07/08 02:31:41;;;;;;;9.63;2.03;;;17.20;94.50;;;;;;5112673;28;20031;-70
2022/07/08 02:34:07;;;;;;;12.32;3.15;;;17.20;94.50;;;;;;5112737;28;20032;-70
2022/07/08 02:36:33;;;;;;;10.90;2.55;;;17.10;94.60;;;;;;5112438;28;20052;-70
2022/07/08 02:38:59;;;;;;;6.05;1.60;;;17.10;94.70;;;;;;5112587;28;20118;-70
2022/07/08 02:41:25;;;;;;;6.10;1.70;;;17.10;94.70;;;;;;5112871;28;20039;-70
2022/07/08 02:43:51;;;;;;;10.73;2.40;;;17.00;94.80;;;;;;5112400;28;20108;-70
2022/07/08 02:46:16;;;;;;;6.50;1.65;;;17.10;94.70;;;;;;5094204;28;20028;-69
2022/07/08 02:48:42;;;;;;;5.28;1.50;;;17.10;94.80;;;;;;5112450;28;20023;-70
2022/07/08 02:51:08;;;;;;;8.15;1.70;;;17.10;94.80;;;;;;5112177;28;20039;-70
2022/07/08 02:53:34;;;;;;;8.75;2.17;;;17.10;94.20;;;;;;5112398;28;20051;-69
2022/07/08 02:56:00;;;;;;;7.28;1.65;;;17.10;93.90;;;;;;5112232;28;20027;-70
2022/07/08 02:58:26;;;;;;;7.00;1.70;;;17.10;93.80;;;;;;5112155;28;20020;-70
2022/07/08 03:00:52;;;;;;;8.20;2.10;;;17.10;93.50;;;;;;5111984;28;20035;-70
2022/07/08 03:03:18;;;;;;;6.20;1.88;;;17.10;93.50;;;;;;5093923;28;20430;-70
2022/07/08 03:05:44;;;;;;;7.95;1.65;;;17.00;93.50;;;;;;5111985;28;20054;-70
2022/07/08 03:08:09;;;;;;;5.95;2.10;;;17.00;93.70;;;;;;5112026;28;20047;-70
2022/07/08 03:10:35;;;;;;;6.85;1.50;;;17.00;93.80;;;;;;5111803;28;20016;-70
2022/07/08 03:13:01;;;;;;;6.68;1.48;;;17.00;94.10;;;;;;5112106;28;20092;-70
2022/07/08 03:15:27;;;;;;;8.48;1.58;;;17.00;94.30;;;;;;5112024;28;20083;-70
2022/07/08 03:17:53;;;;;;;8.93;2.42;;;17.10;94.60;;;;;;5111596;28;20031;-70
2022/07/08 03:20:19;;;;;;;10.60;1.85;;;17.10;94.70;;;;;;5111575;28;20028;-70
2022/07/08 03:22:46;;;;;;;7.25;1.60;;;17.00;94.70;;;;;;5111705;28;20070;-70
2022/07/08 03:25:12;;;;;;;7.85;1.70;;;17.00;94.80;;;;;;5111724;28;20035;-70
2022/07/08 03:27:38;;;;;;;8.75;1.65;;;17.00;94.80;;;;;;5111537;28;20492;-70
2022/07/08 03:30:05;;;;;;;10.65;1.95;;;17.00;94.80;;;;;;5111288;28;20062;-70
2022/07/08 03:32:31;;;;;;;6.78;1.45;;;17.00;95.00;;;;;;5093153;28;20059;-70
2022/07/08 03:34:57;;;;;;;8.25;1.92;;;16.90;95.00;;;;;;5111699;28;20118;-69
2022/07/08 03:37:23;;;;;;;9.32;1.40;;;16.90;95.10;;;;;;5111426;28;20106;-70
2022/07/08 03:39:50;;;;;;;6.35;1.88;;;16.90;95.00;;;;;;5111228;28;20027;-70
2022/07/08 03:42:17;;;;;;;9.30;1.70;;;16.90;95.10;;;;;;5111498;28;20079;-70
2022/07/08 03:44:43;;;;;;;10.82;1.83;;;16.90;95.20;;;;;;5111366;28;20387;-70
2022/07/08 03:47:09;;;;;;;6.88;1.50;;;16.90;95.20;;;;;;5111354;28;20559;-70
2022/07/08 03:49:35;;;;;;;9.95;1.95;;;16.90;95.20;;;;;;5111438;28;20106;-70
2022/07/08 03:52:01;;;;;;;4.70;1.25;;;16.90;95.30;;;;;;5111284;28;20034;-70
2022/07/08 03:54:27;;;;;;;7.70;1.83;;;16.80;95.40;;;;;;5111261;28;20032;-70
2022/07/08 03:56:53;;;;;;;6.45;1.88;;;16.80;95.40;;;;;;5110836;28;20030;-70
2022/07/08 03:59:19;;;;;;;13.05;4.07;;;16.80;95.50;;;;;;5111623;28;20455;-70
2022/07/08 04:01:45;;;;;;;11.30;2.50;;;16.80;95.50;;;;;;5092793;28;20476;-70
2022/07/08 04:04:11;;;;;;;9.13;2.85;;;16.80;95.50;;;;;;5111409;28;20035;-68
2022/07/08 04:06:37;;;;;;;9.35;2.90;;;16.80;95.60;;;;;;5092827;28;20040;-70
2022/07/08 04:09:04;;;;;;;6.18;1.75;;;16.80;95.60;;;;;;5110924;28;20036;-70
2022/07/08 04:11:30;;;;;;;9.70;2.03;;;16.80;95.70;;;;;;5111119;28;20432;-70
2022/07/08 04:13:57;;;;;;;8.20;1.83;;;16.80;95.70;;;;;;5111055;28;20122;-70
2022/07/08 04:16:23;;;;;;;12.45;2.20;;;16.80;95.70;;;;;;5111482;28;20618;-70
2022/07/08 04:18:49;;;;;;;9.20;2.35;;;16.80;95.80;;;;;;5110983;28;20027;-70
2022/07/08 04:21:15;;;;;;;10.90;2.22;;;16.80;95.80;;;;;;5092894;28;20122;-70
2022/07/08 04:23:41;;;;;;;8.07;2.10;;;16.70;95.80;;;;;;5111114;28;20437;-70
2022/07/08 04:26:07;;;;;;;8.40;2.30;;;16.70;95.90;;;;;;5110808;28;20027;-70
2022/07/08 04:28:34;;;;;;;7.85;1.80;;;16.70;95.90;;;;;;5110753;28;20032;-70
2022/07/08 04:31:00;;;;;;;9.20;1.50;;;16.70;96.00;;;;;;5110974;28;20034;-69
2022/07/08 04:33:26;;;;;;;11.10;2.33;;;16.70;96.10;;;;;;5110971;28;20112;-69
2022/07/08 04:35:52;;;;;;;10.95;4.57;;;16.70;95.90;;;;;;5110792;28;20491;-70
2022/07/08 04:38:19;;;;;;;14.60;4.18;;;16.70;96.00;;;;;;5111029;28;20032;-70
2022/07/08 04:40:45;;;;;;;12.07;3.88;;;16.70;96.00;;;;;;5110781;28;20027;-70
2022/07/08 04:43:12;;;;;;;7.20;2.53;;;16.70;96.10;;;;;;5110962;28;20092;-70
2022/07/08 04:45:39;;;;;;;12.75;2.90;;;16.60;96.10;;;;;;5110970;28;20161;-70
2022/07/08 04:48:05;;;;;;;9.10;2.22;;;16.60;96.10;;;;;;5111354;28;20399;-70
2022/07/08 04:50:31;;;;;;;7.18;1.83;;;16.60;96.20;;;;;;5111123;28;20023;-70
2022/07/08 04:52:57;;;;;;;6.80;2.05;;;16.60;96.20;;;;;;5111377;28;20020;-70
2022/07/08 04:55:29;;;;;;;9.55;2.33;;;16.60;96.30;;;;;;5112057;28;20128;-70
2022/07/08 04:57:59;;;;;;;10.48;2.13;;;16.60;96.20;;;;;;5112309;28;20417;-70
2022/07/08 05:00:26;;;;;;;9.25;2.28;;;16.60;96.20;;;;;;5123981;22;20105;-72
2022/07/08 05:02:52;;;;;;;7.50;1.80;;;16.60;96.30;;;;;;5110791;28;20562;-72
2022/07/08 05:05:18;;;;;;;9.20;1.85;;;16.60;96.10;;;;;;5110842;28;20028;-71
2022/07/08 05:07:45;;;;;;;8.20;1.52;;;16.60;96.10;;;;;;5110705;28;20024;-71
2022/07/08 05:10:11;;;;;;;9.90;2.63;;;16.70;96.10;;;;;;5114189;28;20429;-71
2022/07/08 05:12:37;;;;;;;10.00;3.88;;;16.70;95.80;;;;;;5114082;28;20038;-72
2022/07/08 05:15:03;;;;;;;12.27;2.88;;;16.70;95.80;;;;;;5114383;28;20531;-71
2022/07/08 05:17:29;;;;;;;6.30;1.88;;;16.70;95.50;;;;;;5114016;28;20023;-72
2022/07/08 05:19:55;;;;;;;9.80;2.40;;;16.70;95.60;;;;;;5113977;28;20026;-72
2022/07/08 05:22:20;;;;;;;10.02;2.95;;;16.70;95.30;;;;;;5095879;28;20411;-72
2022/07/08 05:24:46;;;;;;;10.00;2.08;;;16.70;95.20;;;;;;5114009;28;20031;-72
2022/07/08 05:27:12;;;;;;;9.85;2.03;;;16.70;95.20;;;;;;5113768;28;20391;-72
2022/07/08 05:29:38;;;;;;;6.80;1.80;;;16.80;94.50;;;;;;5113693;28;20441;-72
2022/07/08 05:32:04;;;;;;;7.63;2.05;;;16.80;94.40;;;;;;5114034;28;20027;-72
2022/07/08 05:34:31;;;;;;;16.10;2.25;;;16.80;94.80;;;;;;5113839;28;20051;-72
2022/07/08 05:36:57;;;;;;;7.45;1.95;;;16.90;94.00;;;;;;5113724;28;20031;-72
2022/07/08 05:39:23;;;;;;;8.68;1.90;;;16.90;93.70;;;;;;5113488;28;20047;-71
2022/07/08 05:41:51;;;;;;;11.88;2.10;;;16.90;93.20;;;;;;5113578;28;20024;-71
2022/07/08 05:44:17;;;;;;;7.95;2.50;;;17.00;92.80;;;;;;5113840;28;20038;-72
2022/07/08 05:46:43;;;;;;;10.85;1.92;;;17.00;92.80;;;;;;5095448;28;20034;-72
2022/07/08 05:49:09;;;;;;;9.00;2.97;;;17.10;92.90;;;;;;5095003;28;20038;-72
2022/07/08 05:51:35;;;;;;;13.20;3.03;;;17.10;93.40;;;;;;5113474;28;20028;-71
2022/07/08 05:54:01;;;;;;;7.55;2.88;;;17.10;93.40;;;;;;5113441;28;20046;-72
2022/07/08 05:56:27;;;;;;;8.27;2.60;;;17.10;93.40;;;;;;5094993;28;20020;-72
2022/07/08 05:58:53;;;;;;;8.57;2.00;;;17.20;94.10;;;;;;5113535;28;20380;-72
2022/07/08 06:01:19;;;;;;;9.70;2.08;;;17.20;94.10;;;;;;5113135;28;20114;-72
2022/07/08 06:03:45;;;;;;;10.93;2.60;;;17.20;94.30;;;;;;5113362;28;20031;-72
2022/07/08 06:06:10;;;;;;;7.57;2.05;;;17.20;94.40;;;;;;5113072;28;20030;-71
2022/07/08 06:08:36;;;;;;;12.13;2.55;;;17.30;94.30;;;;;;5112882;28;20063;-72
2022/07/08 06:11:03;;;;;;;7.97;2.00;;;17.30;94.30;;;;;;5094701;28;20028;-72
2022/07/08 06:13:29;;;;;;;9.80;1.95;;;17.30;94.20;;;;;;5113171;28;20271;-72
2022/07/08 06:15:55;;;;;;;6.80;1.58;;;17.30;93.90;;;;;;5112903;28;20023;-72
2022/07/08 06:18:21;;;;;;;8.07;1.85;;;17.40;94.10;;;;;;5112600;28;20036;-72
2022/07/08 06:20:47;;;;;;;8.85;2.17;;;17.40;92.90;;;;;;5112530;28;20024;-71
2022/07/08 06:23:13;;;;;;;5.75;1.90;;;17.40;92.30;;;;;;5112872;28;20032;-72
2022/07/08 06:25:39;;;;;;;5.85;1.60;;;17.40;92.40;;;;;;5112610;28;20557;-72
2022/07/08 06:28:05;;;;;;;8.80;1.75;;;17.50;92.40;;;;;;5112699;28;20165;-72
2022/07/08 06:30:30;;;;;;;10.93;1.98;;;17.50;92.70;;;;;;5112377;28;20027;-72
2022/07/08 06:32:59;;;;;;;12.40;2.00;;;17.50;92.40;;;;;;5112604;28;20028;-71
2022/07/08 06:35:28;;;;;;;;;;;17.60;92.80;;;;;;5113013;28;20380;-72
2022/07/08 06:37:54;;;;;;;12.77;2.10;;;17.60;93.10;;;;;;5112315;28;19903;-72
2022/07/08 06:40:23;;;;;;;9.25;1.92;;;17.60;93.20;;;;;;5112272;28;20032;-72
2022/07/08 06:42:49;;;;;;;;;;;17.60;92.50;;;;;;5112982;28;20055;-72
2022/07/08 06:45:15;;;;;;;9.65;2.10;;;17.60;92.40;;;;;;5094172;28;19998;-71
2022/07/08 06:47:42;;;;;;;11.13;4.68;;;17.50;92.40;;;;;;5112182;28;20073;-72
2022/07/08 06:50:08;;;;;;;9.23;2.75;;;17.50;92.60;;;;;;5093927;28;20476;-71
2022/07/08 06:52:35;;;;;;;8.15;2.45;;;17.40;92.70;;;;;;5093842;28;20494;-71
2022/07/08 06:55:02;;;;;;;10.77;2.10;;;17.50;92.60;;;;;;5112295;28;20153;-71
2022/07/08 06:57:28;;;;;;;7.95;1.90;;;17.50;92.60;;;;;;5112068;28;20034;-72
2022/07/08 06:59:54;;;;;;;14.05;3.33;;;17.40;92.90;;;;;;5111655;28;20072;-72
2022/07/08 07:02:20;;;;;;;9.77;2.20;;;17.40;92.90;;;;;;5076933;28;20085;-72
2022/07/08 07:04:46;;;;;;;7.90;1.50;;;17.40;92.80;;;;;;5111867;28;20031;-71
2022/07/08 07:07:12;;;;;;;9.82;1.63;;;17.40;92.60;;;;;;5093443;28;20035;-71
2022/07/08 07:09:39;;;;;;;8.13;2.00;;;17.40;92.50;;;;;;5111672;28;20028;-72
2022/07/08 07:12:09;;;;;;;5.82;1.58;;;17.40;92.50;;;;;;5111976;28;20027;-71
2022/07/08 07:14:35;;;;;;;9.25;2.35;;;17.40;92.90;;;;;;5111793;28;20027;-71
2022/07/08 07:17:02;;;;;;;11.57;3.10;;;17.50;93.30;;;;;;5111798;28;20028;-71
2022/07/08 07:19:29;;;;;;;9.43;2.65;;;17.60;93.40;;;;;;5111600;28;20119;-71
2022/07/08 07:21:55;;;;;;;8.77;2.25;;;17.60;93.30;;;;;;5111801;28;20106;-72
2022/07/08 07:24:21;;;;;;;13.05;2.60;;;17.60;93.30;;;;;;5111833;28;20528;-72
2022/07/08 07:26:47;;;;;;;7.30;2.53;;;17.70;92.60;;;;;;5111766;28;20027;-71
2022/07/08 07:29:13;;;;;;;11.95;3.13;;;17.70;92.60;;;;;;5093286;28;20118;-71
2022/07/08 07:31:41;;;;;;;9.18;2.60;;;17.70;92.40;;;;;;5092696;28;20031;-72
2022/07/08 07:34:07;;;;;;;8.33;2.20;;;17.80;92.80;;;;;;5111976;28;20088;-71
2022/07/08 07:36:33;;;;;;;12.23;1.90;;;17.80;92.40;;;;;;5111380;28;20028;-71
2022/07/08 07:38:59;;;;;;;7.32;2.38;;;17.80;92.20;;;;;;5111365;28;20084;-71
2022/07/08 07:41:25;;;;;;;7.45;2.40;;;17.80;92.40;;;;;;5111836;28;20369;-72
2022/07/08 07:43:51;;;;;;;8.50;2.90;;;17.90;92.40;;;;;;5093250;28;20040;-71
2022/07/08 07:46:17;;;;;;;9.68;2.75;;;17.90;92.50;;;;;;5111497;28;20046;-71
2022/07/08 07:48:43;;;;;;;7.47;2.38;;;18.00;92.20;;;;;;5093006;28;20035;-72
2022/07/08 07:51:09;;;;;;;7.97;2.58;;;18.00;92.10;;;;;;5093162;28;20031;-71
2022/07/08 07:53:35;;;;;;;6.85;2.00;;;17.90;92.30;;;;;;5111355;28;20024;-71
2022/07/08 07:56:01;;;;;;;7.75;2.30;;;17.90;92.60;;;;;;5111401;28;20031;-71
2022/07/08 07:58:27;;;;;;;10.85;2.80;;;17.90;92.40;;;;;;5111217;28;20551;-71
2022/07/08 08:00:53;;;;;;;12.80;3.35;;;17.90;92.40;;;;;;5111261;28;20080;-70
2022/07/08 08:03:19;;;;;;;9.38;3.08;;;17.80;92.30;;;;;;5111710;28;20019;-71
2022/07/08 08:05:45;;;;;;;10.65;4.10;;;17.80;92.20;;;;;;5111614;28;20393;-71
2022/07/08 08:08:12;;;;;;;8.05;2.80;;;17.80;92.10;;;;;;5111401;28;20027;-70
2022/07/08 08:10:38;;;;;;;11.60;3.28;;;17.80;92.50;;;;;;5111453;28;20031;-71
2022/07/08 08:13:04;;;;;;;11.57;2.80;;;17.80;92.50;;;;;;5111124;28;20038;-71
2022/07/08 08:15:31;;;;;;;8.10;3.08;;;17.90;92.10;;;;;;5111251;28;20028;-71
2022/07/08 08:17:57;;;;;;;8.68;2.72;;;17.90;92.10;;;;;;5110962;28;20555;-72
2022/07/08 08:20:25;;;;;;;12.50;3.22;;;17.90;92.20;;;;;;5110918;28;20031;-72
2022/07/08 08:22:51;;;;;;;9.93;2.90;;;18.00;92.50;;;;;;5111055;28;20556;-71
2022/07/08 08:25:20;;;;;;;7.82;2.65;;;18.00;92.40;;;;;;5111159;28;20035;-72
2022/07/08 08:27:47;;;;;;;;;;;18.00;92.50;;;;;;5111381;28;20396;-72
2022/07/08 08:30:15;;;;;;;9.73;2.17;;;18.00;92.10;;;;;;5092705;28;20372;-72
2022/07/08 08:32:41;;;;;;;9.23;2.97;;;18.10;91.90;;;;;;5110743;28;20031;-72
2022/07/08 08:35:09;;;;;;;7.82;3.03;;;18.10;91.70;;;;;;5110978;28;20027;-72
2022/07/08 08:37:35;;;;;;;7.45;2.55;;;18.10;92.00;;;;;;5111018;28;20054;-72
2022/07/08 08:40:03;;;;;;;6.85;2.88;;;18.10;92.00;;;;;;5110653;28;20560;-72
2022/07/08 08:42:31;;;;;;;7.88;2.38;;;18.10;92.00;;;;;;5112623;28;20407;-71
2022/07/08 08:44:58;;;;;;;9.85;2.10;;;18.20;92.10;;;;;;5114970;28;20401;-72
2022/07/08 08:47:29;;;;;;;8.90;2.20;;;18.30;91.80;;;;;;5114601;28;20028;-72
2022/07/08 08:49:56;;;;;;;9.63;1.50;;;18.30;91.80;;;;;;5114874;28;20161;-72
2022/07/08 08:52:26;;;;;;;9.52;2.00;;;18.30;90.70;;;;;;5114598;28;20096;-72
2022/07/08 08:54:54;;;;;;;6.38;1.90;;;18.40;91.40;;;;;;5114782;28;20038;-72
2022/07/08 08:57:20;;;;;;;6.93;1.87;;;18.30;91.50;;;;;;5114554;28;20038;-71
2022/07/08 08:59:46;;;;;;;9.65;2.92;;;18.30;91.70;;;;;;5114130;28;20028;-71
2022/07/08 09:02:12;;;;;;;6.72;2.03;;;18.40;91.00;;;;;;5114498;28;20034;-71
2022/07/08 09:04:38;;;;;;;8.40;2.42;;;18.50;90.70;;;;;;5114677;28;20076;-72
2022/07/08 09:07:05;;;;;;;8.25;2.30;;;18.50;90.50;;;;;;5114826;28;20106;-71
2022/07/08 09:09:32;;;;;;;8.40;1.95;;;18.60;90.70;;;;;;5114273;28;20115;-71
2022/07/08 09:12:16;;;;;;;8.82;1.90;;;18.60;90.30;;;;;;5114310;28;20118;-71
2022/07/08 09:14:49;;;;;;;8.80;2.25;;;18.60;90.90;;;;;;5095883;28;20039;-71
2022/07/08 09:17:17;;;;;;;9.15;2.15;;;18.70;91.30;;;;;;5078761;28;20024;-71
2022/07/08 09:19:48;;;;;;;4.63;1.80;;;18.70;91.50;;;;;;5113917;28;20467;-71
2022/07/08 09:22:14;;;;;;;7.47;2.83;;;18.80;91.40;;;;;;5114137;28;20028;-71
2022/07/08 09:24:40;;;;;;;10.50;2.63;;;18.90;91.50;;;;;;5114026;28;20047;-72
2022/07/08 09:27:11;;;;;;;8.35;2.30;;;18.90;91.50;;;;;;5095669;28;20038;-71
2022/07/08 09:30:00;;;;;;;7.88;2.28;;;19.00;91.20;;;;;;5113974;28;20176;-71
2022/07/08 09:32:26;;;;;;;12.15;1.85;;;19.00;91.20;;;;;;5113893;28;20069;-71
2022/07/08 09:34:52;;;;;;;14.13;2.80;;;19.00;90.90;;;;;;5095775;28;20028;-72
2022/07/08 09:37:20;;;;;;;7.47;1.73;;;19.00;90.00;;;;;;5113641;28;20035;-71
2022/07/08 09:39:47;;;;;;;7.45;2.83;;;19.10;90.20;;;;;;5113632;28;20369;-71
2022/07/08 09:42:14;;;;;;;9.10;2.35;;;19.10;90.40;;;;;;5113702;28;20543;-71
2022/07/08 09:44:41;;;;;;;8.65;2.65;;;19.10;90.60;;;;;;5113647;28;20028;-71
2022/07/08 09:47:15;;;;;;;8.15;2.30;;;19.20;90.60;;;;;;5113561;28;20024;-72
2022/07/08 09:49:46;;;;;;;10.57;2.40;;;19.20;90.40;;;;;;5113077;28;20032;-71
2022/07/08 09:52:20;;;;;;;9.15;2.28;;;19.20;90.40;;;;;;5113511;28;20495;-71
2022/07/08 09:54:59;;;;;;;9.00;2.35;;;19.30;90.40;;;;;;5112751;28;20169;-71
2022/07/08 09:57:25;;;;;;;;;;;19.40;90.60;;;;;;5113842;28;20030;-71
2022/07/08 09:59:53;;;;;;;8.30;2.78;;;19.40;90.20;;;;;;5113050;28;19964;-71
2022/07/08 10:02:19;;;;;;;7.85;1.98;;;19.40;89.90;;;;;;5113577;28;20031;-71
2022/07/08 10:04:48;;;;;;;9.27;2.38;;;19.40;89.90;;;;;;5113377;28;20158;-71
2022/07/08 10:07:14;;;;;;;7.47;1.92;;;19.40;89.90;;;;;;5113247;28;20128;-71
2022/07/08 10:09:40;;;;;;;6.82;1.60;;;19.40;90.10;;;;;;5094674;28;20134;-71
2022/07/08 10:12:07;;;;;;;8.45;2.05;;;19.40;89.50;;;;;;5113228;28;20027;-72
2022/07/08 10:14:35;;;;;;;7.22;2.40;;;19.50;89.50;;;;;;5112918;28;20035;-71
2022/07/08 10:17:06;;;;;;;8.88;2.80;;;19.50;89.50;;;;;;5112876;28;20028;-71
2022/07/08 10:19:38;;;;;;;10.38;2.60;;;19.60;88.70;;;;;;5094453;28;20088;-72
2022/07/08 10:22:06;;;;;;;13.20;2.97;;;19.60;88.30;;;;;;5112976;28;20031;-71
2022/07/08 10:24:35;;;;;;;7.65;2.40;;;19.60;88.20;;;;;;5112818;28;20035;-71
2022/07/08 10:27:02;;;;;;;6.25;1.50;;;19.60;88.30;;;;;;5112750;28;20028;-71
2022/07/08 10:29:30;;;;;;;9.30;2.58;;;19.70;88.50;;;;;;5112587;28;20032;-72
2022/07/08 10:31:56;;;;;;;12.77;2.13;;;19.80;88.20;;;;;;5113071;28;20027;-71
2022/07/08 10:34:32;;;;;;;9.45;2.33;;;20.00;87.80;;;;;;5112639;28;20059;-71
2022/07/08 10:37:01;;;;;;;9.45;2.67;;;20.00;87.10;;;;;;5112529;28;20380;-71
2022/07/08 10:39:29;;;;;;;6.03;1.95;;;20.10;87.70;;;;;;5094383;28;20024;-71
2022/07/08 10:41:59;;;;;;;6.70;1.80;;;20.10;87.70;;;;;;5112472;28;20036;-71
2022/07/08 10:44:43;;;;;;;9.98;2.25;;;20.20;87.90;;;;;;5112635;28;20088;-71
2022/07/08 10:47:22;;;;;;;6.13;2.78;;;20.20;88.00;;;;;;5112286;28;20035;-71
2022/07/08 10:49:49;;;;;;;;;;;20.30;87.80;;;;;;5112639;28;20547;-71
2022/07/08 10:52:16;;;;;;;7.22;1.63;;;20.30;88.10;;;;;;5112337;28;20383;-71
2022/07/08 10:54:43;;;;;;;9.57;2.17;;;20.30;88.30;;;;;;5112195;28;20027;-71
2022/07/08 10:57:16;;;;;;;10.75;2.30;;;20.30;88.60;;;;;;5094009;28;20040;-69
2022/07/08 11:03:08;;;;;;;7.75;1.65;;;20.40;89.10;;;;;;5009135;28;20049;-79
2022/07/08 11:05:41;;;;;;;6.47;2.10;;;20.40;88.90;;;;;;5011903;28;20041;-79
2022/07/08 11:08:20;;;;;;;8.93;1.85;;;20.40;88.70;;;;;;5010327;28;20069;-79
2022/07/08 11:10:51;;;;;;;9.82;2.20;;;20.40;89.40;;;;;;5031809;28;20029;-79
2022/07/08 11:13:19;;;;;;;6.78;1.42;;;20.40;89.10;;;;;;5031279;28;20308;-79
2022/07/08 11:15:44;;;;;;;8.82;2.05;;;20.40;89.20;;;;;;5031032;28;20390;-79
2022/07/08 11:18:10;;;;;;;10.00;1.70;;;20.50;88.70;;;;;;5031318;28;20029;-79
2022/07/08 11:20:36;;;;;;;7.15;1.73;;;20.50;88.70;;;;;;5031027;28;20038;-79
2022/07/08 11:23:05;;;;;;;6.53;1.50;;;20.50;88.80;;;;;;5029870;28;20107;-79
2022/07/08 11:25:31;;;;;;;11.48;1.88;;;20.50;89.50;;;;;;5029857;28;20069;-79
2022/07/08 11:27:57;;;;;;;6.05;1.58;;;20.60;89.30;;;;;;5029545;28;20061;-80
2022/07/08 11:30:27;;;;;;;6.43;1.63;;;20.60;89.10;;;;;;5029379;28;20037;-79
2022/07/08 11:32:53;;;;;;;5.47;1.35;;;20.60;90.10;;;;;;5031079;28;20030;-79
2022/07/08 11:35:23;;;;;;;9.07;1.77;;;20.70;89.90;;;;;;5030939;28;20075;-79
2022/07/08 11:37:50;;;;;;;5.70;1.45;;;20.70;88.40;;;;;;5031103;28;20042;-80
2022/07/08 11:40:18;;;;;;;7.35;1.60;;;20.70;89.00;;;;;;5030667;28;20029;-79
2022/07/08 11:42:45;;;;;;;4.45;1.67;;;20.80;87.60;;;;;;5029738;28;20382;-79
2022/07/08 11:45:12;;;;;;;9.77;1.92;;;20.80;87.60;;;;;;5030978;28;20056;-79
2022/07/08 11:47:38;;;;;;;5.88;1.65;;;20.80;88.10;;;;;;5030814;28;20029;-79
2022/07/08 11:50:07;;;;;;;7.28;1.80;;;20.80;87.60;;;;;;5030666;28;20029;-79
2022/07/08 11:52:33;;;;;;;6.20;1.60;;;20.80;87.30;;;;;;5030726;28;20029;-79
2022/07/08 11:54:58;;;;;;;6.70;1.88;;;20.80;88.00;;;;;;5029656;28;20136;-79
2022/07/08 11:57:24;;;;;;;6.75;1.73;;;20.80;89.00;;;;;;5030483;28;20025;-79
2022/07/08 11:59:50;;;;;;;6.93;1.50;;;20.90;88.40;;;;;;5030505;28;20041;-79
2022/07/08 12:02:21;;;;;;;6.57;1.52;;;20.90;88.90;;;;;;5030496;28;20397;-79
2022/07/08 12:04:48;;;;;;;6.72;1.63;;;20.90;89.00;;;;;;5030634;28;20037;-79
2022/07/08 12:07:26;;;;;;;5.68;1.52;;;20.90;88.90;;;;;;5030288;28;20040;-79
2022/07/08 12:09:59;;;;;;;9.02;1.85;;;20.90;89.10;;;;;;5030295;28;20087;-79
2022/07/08 12:12:27;;;;;;;8.88;2.17;;;21.00;88.90;;;;;;5030898;28;20029;-79
2022/07/08 12:14:53;;;;;;;7.80;1.77;;;21.00;88.40;;;;;;5045921;28;20458;-79
2022/07/08 12:17:23;;;;;;;10.32;1.60;;;21.00;89.20;;;;;;5031782;28;20025;-79
2022/07/08 12:19:52;;;;;;;6.57;1.80;;;21.00;89.80;;;;;;5034664;28;20064;-79
2022/07/08 12:22:37;;;;;;;;;;;21.00;89.90;;;;;;5033528;28;20493;-80
2022/07/08 12:25:03;;;;;;;11.93;2.42;;;21.00;89.20;;;;;;5034164;28;19909;-79
2022/07/08 12:27:30;;;;;;;8.52;1.88;;;21.10;89.00;;;;;;5033036;28;20040;-79
2022/07/08 12:30:03;;;;;;;8.25;2.08;;;21.20;89.50;;;;;;5032797;28;20083;-79
2022/07/08 12:32:40;;;;;;;10.15;2.10;;;21.10;89.60;;;;;;5049453;28;20492;-79
2022/07/08 12:35:08;;;;;;;8.45;2.05;;;21.10;89.60;;;;;;5034690;28;20370;-79
2022/07/08 12:37:33;;;;;;;11.00;2.80;;;21.30;90.10;;;;;;5034010;28;20037;-79
2022/07/08 12:40:18;;;;;;;8.55;2.30;;;21.40;89.80;;;;;;5033819;28;20099;-79
2022/07/08 12:43:01;;;;;;;8.70;2.25;;;21.60;89.10;;;;;;5032680;28;20067;-79
2022/07/08 12:45:29;;;;;;;8.55;2.72;;;21.60;89.00;;;;;;5032641;28;20255;-79
2022/07/08 12:47:55;;;;;;;5.88;1.77;;;21.60;88.70;;;;;;5032567;28;20030;-79
2022/07/08 12:50:21;;;;;;;7.35;2.13;;;21.60;88.60;;;;;;5033508;28;20116;-80
2022/07/08 12:52:47;;;;;;;7.30;1.38;;;21.60;87.80;;;;;;5034009;28;20136;-79